createdAt,value
2018-02-15T00:05:56.929Z,76.51
2018-02-15T00:12:01.558Z,77.02
2018-02-15T00:18:06.066Z,76.72
2018-02-15T00:24:10.782Z,75.92
2018-02-15T00:30:15.308Z,75.42
2018-02-15T00:36:19.842Z,75.55
2018-02-15T00:42:25.126Z,75.20
2018-02-15T00:48:30.578Z,75.05
2018-02-15T00:54:35.202Z,75.06
2018-02-15T01:00:39.759Z,75.38
2018-02-15T01:06:44.258Z,76.30
2018-02-15T01:12:48.842Z,76.12
2018-02-15T01:18:53.889Z,75.59
2018-02-15T01:24:58.706Z,75.82
2018-02-15T01:31:03.196Z,75.82
2018-02-15T01:37:07.700Z,76.00
2018-02-15T01:43:12.948Z,76.21
2018-02-15T01:49:17.588Z,76.07
2018-02-15T01:55:22.807Z,75.83
2018-02-15T02:01:27.608Z,75.14
2018-02-15T02:07:32.150Z,75.06
2018-02-15T02:13:36.949Z,75.05
2018-02-15T02:19:41.565Z,75.10
2018-02-15T02:25:47.559Z,74.77
2018-02-15T02:31:53.541Z,74.77
2018-02-15T02:37:58.875Z,75.05
2018-02-15T02:44:03.419Z,75.63
2018-02-15T02:50:08.129Z,75.29
2018-02-15T02:56:12.623Z,75.01
2018-02-15T03:02:17.143Z,73.94
2018-02-15T03:08:22.228Z,74.01
2018-02-15T03:14:27.729Z,73.43
2018-02-15T03:20:32.319Z,73.95
2018-02-15T03:26:36.923Z,73.57
2018-02-15T03:32:41.532Z,73.51
2018-02-15T03:38:46.100Z,73.24
2018-02-15T03:44:51.150Z,73.52
2018-02-15T03:50:55.738Z,73.16
2018-02-15T03:57:00.217Z,72.88
2018-02-15T04:03:04.768Z,73.71
2018-02-15T04:09:09.317Z,73.23
2018-02-15T04:15:13.973Z,72.95
2018-02-15T04:21:18.435Z,73.16
2018-02-15T04:27:23.067Z,73.64
2018-02-15T04:33:27.910Z,73.29
2018-02-15T04:39:32.443Z,72.71
2018-02-15T04:45:37.708Z,72.86
2018-02-15T04:51:42.254Z,73.14
2018-02-15T04:57:47.595Z,73.54
2018-02-15T05:03:52.975Z,72.88
2018-02-15T05:09:58.234Z,72.73
2018-02-15T05:16:02.756Z,72.58
2018-02-15T05:22:07.266Z,72.00
2018-02-15T05:28:11.790Z,71.66
2018-02-15T05:34:16.338Z,71.34
2018-02-15T05:40:21.496Z,71.25
2018-02-15T05:46:25.991Z,71.18
2018-02-15T05:52:30.515Z,70.84
2018-02-15T05:58:35.127Z,71.37
2018-02-15T06:04:41.141Z,71.15
2018-02-15T06:10:45.613Z,70.99
2018-02-15T06:16:50.331Z,71.03
2018-02-15T06:22:55.044Z,70.95
2018-02-15T06:28:59.603Z,70.75
2018-02-15T06:35:04.121Z,70.21
2018-02-15T06:41:08.670Z,71.98
2018-02-15T06:47:13.385Z,69.83
2018-02-15T06:53:17.987Z,69.73
2018-02-15T06:59:22.837Z,69.41
2018-02-15T07:05:27.383Z,69.43
2018-02-15T07:11:32.000Z,68.70
2018-02-15T07:17:36.497Z,68.88
2018-02-15T07:23:40.994Z,68.75
2018-02-15T07:29:46.415Z,68.63
2018-02-15T07:35:51.152Z,68.88
2018-02-15T07:41:56.536Z,67.48
2018-02-15T07:48:01.843Z,67.75
2018-02-15T07:54:06.346Z,66.92
2018-02-15T08:00:10.916Z,66.15
2018-02-15T08:06:15.712Z,65.98
2018-02-15T08:12:21.012Z,66.63
2018-02-15T08:18:26.272Z,66.67
2018-02-15T08:24:30.731Z,65.86
2018-02-15T08:30:35.270Z,66.47
2018-02-15T08:36:40.584Z,65.14
2018-02-15T08:42:45.977Z,65.04
2018-02-15T08:48:51.436Z,65.07
2018-02-15T08:54:56.815Z,65.15
2018-02-15T09:01:01.641Z,64.94
2018-02-15T09:07:06.230Z,65.06
2018-02-15T09:13:11.505Z,65.83
2018-02-15T09:19:15.979Z,66.19
2018-02-15T09:25:21.661Z,67.47
2018-02-15T09:31:26.476Z,69.81
2018-02-15T09:37:31.767Z,70.53
2018-02-15T09:43:37.958Z,71.03
2018-02-15T09:49:42.483Z,72.73
2018-02-15T09:55:47.781Z,73.84
2018-02-15T10:01:52.522Z,74.94
2018-02-15T10:07:57.168Z,75.91
2018-02-15T10:14:01.692Z,76.49
2018-02-15T10:20:06.166Z,76.74
2018-02-15T10:26:10.845Z,76.62
2018-02-15T10:32:15.427Z,75.95
2018-02-15T10:38:20.713Z,75.39
2018-02-15T10:44:25.220Z,74.94
2018-02-15T10:50:29.713Z,74.19
2018-02-15T10:56:35.014Z,73.19
2018-02-15T11:02:39.574Z,72.00
2018-02-15T11:08:44.236Z,71.61
2018-02-15T11:14:48.746Z,70.11
2018-02-15T11:20:53.930Z,69.78
2018-02-15T11:26:59.169Z,69.81
2018-02-15T11:33:03.651Z,69.29
2018-02-15T11:39:08.344Z,68.87
2018-02-15T11:45:12.982Z,66.96
2018-02-15T11:51:18.223Z,66.13
2018-02-15T11:57:22.822Z,67.13
2018-02-15T12:03:28.686Z,67.71
2018-02-15T12:09:33.091Z,68.07
2018-02-15T12:15:37.594Z,66.85
2018-02-15T12:21:42.210Z,67.99
2018-02-15T12:27:46.693Z,68.76
2018-02-15T12:33:51.240Z,68.77
2018-02-15T12:39:55.738Z,68.93
2018-02-15T12:46:00.314Z,69.23
2018-02-15T12:52:04.837Z,69.23
2018-02-15T12:58:10.250Z,70.23
2018-02-15T13:04:14.993Z,70.99
2018-02-15T13:10:19.747Z,75.68
2018-02-15T13:16:42.106Z,78.04
2018-02-15T13:22:49.511Z,79.15
2018-02-15T13:28:54.206Z,79.86
2018-02-15T13:34:58.974Z,80.25
2018-02-15T13:41:03.648Z,80.07
2018-02-15T13:47:08.135Z,80.06
2018-02-15T13:53:13.440Z,81.22
2018-02-15T13:59:17.937Z,82.01
2018-02-15T14:05:22.534Z,82.73
2018-02-15T14:11:27.349Z,82.70
2018-02-15T14:17:32.603Z,82.19
2018-02-15T14:23:37.134Z,82.16
2018-02-15T14:29:42.229Z,82.46
2018-02-15T14:35:46.786Z,82.42
2018-02-15T14:41:52.135Z,82.78
2018-02-15T14:47:56.856Z,82.37
2018-02-15T14:54:01.403Z,82.45
2018-02-15T15:00:06.131Z,82.51
2018-02-15T15:06:10.646Z,82.34
2018-02-15T15:12:15.206Z,82.58
2018-02-15T15:18:20.060Z,82.72
2018-02-15T15:24:24.744Z,82.67
2018-02-15T15:30:30.085Z,82.41
2018-02-15T15:36:34.761Z,82.25
2018-02-15T15:42:39.273Z,81.89
2018-02-15T15:48:44.762Z,81.63
2018-02-15T15:54:49.497Z,81.66
2018-02-15T16:00:54.271Z,81.71
2018-02-15T16:06:59.035Z,81.38
2018-02-15T16:13:03.670Z,81.39
2018-02-15T16:19:08.267Z,81.33
2018-02-15T16:25:12.910Z,81.24
2018-02-15T16:31:17.872Z,81.61
2018-02-15T16:37:22.558Z,82.16
2018-02-15T16:43:27.195Z,82.30
2018-02-15T16:49:31.708Z,82.67
2018-02-15T16:55:36.428Z,83.17
2018-02-15T17:01:41.699Z,83.31
2018-02-15T17:07:46.352Z,83.41
2018-02-15T17:13:51.917Z,83.37
2018-02-15T17:19:56.457Z,83.47
2018-02-15T17:26:00.927Z,83.58
2018-02-15T17:32:05.473Z,83.87
2018-02-15T17:38:10.900Z,84.14
2018-02-15T17:44:15.454Z,84.06
2018-02-15T17:50:20.106Z,84.41
2018-02-15T17:56:24.996Z,84.52
2018-02-15T18:02:29.479Z,84.83
2018-02-15T18:08:34.012Z,84.72
2018-02-15T18:14:38.611Z,85.32
2018-02-15T18:20:43.888Z,85.52
2018-02-15T18:26:48.595Z,85.58
2018-02-15T18:32:53.151Z,85.51
2018-02-15T18:38:57.763Z,85.47
2018-02-15T18:45:03.169Z,85.87
2018-02-15T18:51:07.687Z,86.44
2018-02-15T18:57:12.184Z,86.56
2018-02-15T19:03:16.915Z,86.49
2018-02-15T19:09:21.920Z,86.47
2018-02-15T19:15:26.628Z,86.48
2018-02-15T19:21:31.898Z,86.77
2018-02-15T19:27:36.416Z,87.52
2018-02-15T19:33:41.810Z,87.92
2018-02-15T19:39:46.443Z,87.65
2018-02-15T19:45:51.679Z,87.89
2018-02-15T19:51:56.373Z,87.50
2018-02-15T19:58:00.828Z,87.74
2018-02-15T20:04:05.316Z,87.61
2018-02-15T20:10:10.593Z,87.57
2018-02-15T20:16:15.083Z,87.58
2018-02-15T20:22:19.961Z,87.49
2018-02-15T20:28:27.474Z,87.70
2018-02-15T20:34:32.869Z,87.91
2018-02-15T20:40:37.457Z,88.07
2018-02-15T20:46:41.924Z,87.82
2018-02-15T20:52:51.972Z,87.75
2018-02-15T20:58:56.518Z,87.74
2018-02-15T21:05:01.001Z,87.23
2018-02-15T21:11:05.496Z,87.12
2018-02-15T21:17:10.255Z,88.03
2018-02-15T21:23:14.887Z,87.61
2018-02-15T21:29:19.791Z,87.24
2018-02-15T21:35:24.313Z,87.62
2018-02-15T21:41:28.738Z,87.22
2018-02-15T21:47:34.035Z,87.03
2018-02-15T21:53:38.578Z,87.40
2018-02-15T21:59:43.080Z,87.07
2018-02-15T22:05:47.745Z,87.52
2018-02-15T22:11:52.509Z,87.20
2018-02-15T22:17:57.066Z,87.13
2018-02-15T22:24:01.819Z,87.33
2018-02-15T22:30:06.374Z,87.23
2018-02-15T22:36:10.880Z,87.08
2018-02-15T22:42:15.628Z,87.07
2018-02-15T22:48:21.644Z,87.02
2018-02-15T22:54:26.487Z,87.04
2018-02-15T23:00:31.798Z,87.03
2018-02-15T23:06:36.269Z,87.03
2018-02-15T23:12:40.752Z,87.30
2018-02-15T23:18:45.243Z,87.22
2018-02-15T23:24:50.213Z,87.01
2018-02-15T23:30:55.144Z,86.72
2018-02-15T23:37:00.808Z,88.00
2018-02-15T23:43:05.371Z,87.55
2018-02-15T23:49:10.689Z,88.21
2018-02-15T23:55:15.610Z,87.64
